Terminal Aerodrome Forecast
Issued by NWS

Home | Current Version | Previous Version | Text Only | Print | Product List | Glossary On
Versions: 1 2 3 4 5 6 7 8 9 10 11 12 13 14 15 16
000
FTUS44 KMOB 271148
TAFBFM
TAF
KBFM 271148Z 2712/2812 20003KT P6SM FEW050 SCT250
     FM271500 20010KT P6SM VCSH SCT025 BKN050
      TEMPO 2718/2722 3SM TSRA OVC025CB
     FM280000 20004KT P6SM FEW025 SCT050=

USA.gov is the U.S. government's official web portal to all federal, state and local government web resources and services.